sensor_id;sensor_type;location;lat;lon;timestamp;temperature;humidity
14995;DHT22;7593;49.006;8.372;2023-08-08T00:00:28;14.60;99.90
14995;DHT22;7593;49.006;8.372;2023-08-08T00:02:54;14.60;99.90
14995;DHT22;7593;49.006;8.372;2023-08-08T00:05:20;14.60;99.90
14995;DHT22;7593;49.006;8.372;2023-08-08T00:07:48;14.60;99.90
14995;DHT22;7593;49.006;8.372;2023-08-08T00:10:15;14.60;99.90
14995;DHT22;7593;49.006;8.372;2023-08-08T00:12:42;14.60;99.90
14995;DHT22;7593;49.006;8.372;2023-08-08T00:15:08;14.60;99.90
14995;DHT22;7593;49.006;8.372;2023-08-08T00:17:35;14.60;99.90
14995;DHT22;7593;49.006;8.372;2023-08-08T00:20:03;14.70;99.90
14995;DHT22;7593;49.006;8.372;2023-08-08T00:22:30;14.70;99.90
14995;DHT22;7593;49.006;8.372;2023-08-08T00:24:58;14.70;99.90
14995;DHT22;7593;49.006;8.372;2023-08-08T00:27:25;14.70;99.90
14995;DHT22;7593;49.006;8.372;2023-08-08T00:29:52;14.70;99.90
14995;DHT22;7593;49.006;8.372;2023-08-08T00:32:20;14.80;99.90
14995;DHT22;7593;49.006;8.372;2023-08-08T00:34:47;14.80;99.90
14995;DHT22;7593;49.006;8.372;2023-08-08T00:37:13;14.80;99.90
14995;DHT22;7593;49.006;8.372;2023-08-08T00:39:40;14.90;99.90
14995;DHT22;7593;49.006;8.372;2023-08-08T00:42:12;14.90;99.90
14995;DHT22;7593;49.006;8.372;2023-08-08T00:44:39;15.00;99.90
14995;DHT22;7593;49.006;8.372;2023-08-08T00:47:06;15.00;99.90
14995;DHT22;7593;49.006;8.372;2023-08-08T00:49:33;15.00;99.90
14995;DHT22;7593;49.006;8.372;2023-08-08T00:52:00;15.00;99.90
14995;DHT22;7593;49.006;8.372;2023-08-08T00:54:27;15.00;99.90
14995;DHT22;7593;49.006;8.372;2023-08-08T00:56:55;15.00;99.90
14995;DHT22;7593;49.006;8.372;2023-08-08T00:59:23;14.90;99.90
14995;DHT22;7593;49.006;8.372;2023-08-08T01:01:50;14.90;99.90
14995;DHT22;7593;49.006;8.372;2023-08-08T01:04:18;14.90;99.90
14995;DHT22;7593;49.006;8.372;2023-08-08T01:06:54;14.80;99.90
14995;DHT22;7593;49.006;8.372;2023-08-08T01:09:24;14.80;99.90
14995;DHT22;7593;49.006;8.372;2023-08-08T01:11:52;14.80;99.90
14995;DHT22;7593;49.006;8.372;2023-08-08T01:14:19;14.80;99.90
14995;DHT22;7593;49.006;8.372;2023-08-08T01:16:49;14.70;99.90
14995;DHT22;7593;49.006;8.372;2023-08-08T01:19:21;14.70;99.90
14995;DHT22;7593;49.006;8.372;2023-08-08T01:21:52;14.60;99.90
14995;DHT22;7593;49.006;8.372;2023-08-08T01:24:22;14.60;99.90
14995;DHT22;7593;49.006;8.372;2023-08-08T01:26:51;14.50;99.90
14995;DHT22;7593;49.006;8.372;2023-08-08T01:29:18;14.50;99.90
14995;DHT22;7593;49.006;8.372;2023-08-08T01:31:45;14.50;99.90
14995;DHT22;7593;49.006;8.372;2023-08-08T01:34:12;14.50;99.90
14995;DHT22;7593;49.006;8.372;2023-08-08T01:36:44;14.50;99.90
14995;DHT22;7593;49.006;8.372;2023-08-08T01:39:16;14.60;99.90
14995;DHT22;7593;49.006;8.372;2023-08-08T01:41:46;14.60;99.90
14995;DHT22;7593;49.006;8.372;2023-08-08T01:44:15;14.60;99.90
14995;DHT22;7593;49.006;8.372;2023-08-08T01:46:43;14.60;99.90
14995;DHT22;7593;49.006;8.372;2023-08-08T01:49:10;14.60;99.90
14995;DHT22;7593;49.006;8.372;2023-08-08T01:51:36;14.50;99.90
14995;DHT22;7593;49.006;8.372;2023-08-08T01:54:03;14.50;99.90
14995;DHT22;7593;49.006;8.372;2023-08-08T01:56:30;14.50;99.90
14995;DHT22;7593;49.006;8.372;2023-08-08T01:58:58;14.50;99.90
14995;DHT22;7593;49.006;8.372;2023-08-08T02:01:25;14.40;99.90
14995;DHT22;7593;49.006;8.372;2023-08-08T02:03:51;14.40;99.90
14995;DHT22;7593;49.006;8.372;2023-08-08T02:06:18;14.30;99.90
14995;DHT22;7593;49.006;8.372;2023-08-08T02:08:45;14.30;99.90
14995;DHT22;7593;49.006;8.372;2023-08-08T02:11:12;14.30;99.90
14995;DHT22;7593;49.006;8.372;2023-08-08T02:13:38;14.30;99.90
14995;DHT22;7593;49.006;8.372;2023-08-08T02:16:06;14.30;99.90
14995;DHT22;7593;49.006;8.372;2023-08-08T02:18:33;14.20;99.90
14995;DHT22;7593;49.006;8.372;2023-08-08T02:21:01;14.20;99.90
14995;DHT22;7593;49.006;8.372;2023-08-08T02:23:28;14.20;99.90
14995;DHT22;7593;49.006;8.372;2023-08-08T02:25:54;14.20;99.90
14995;DHT22;7593;49.006;8.372;2023-08-08T02:28:21;14.20;99.90
14995;DHT22;7593;49.006;8.372;2023-08-08T02:30:48;14.30;99.90
14995;DHT22;7593;49.006;8.372;2023-08-08T02:33:16;14.20;99.90
14995;DHT22;7593;49.006;8.372;2023-08-08T02:35:42;14.20;99.90
14995;DHT22;7593;49.006;8.372;2023-08-08T02:38:09;14.20;99.90
14995;DHT22;7593;49.006;8.372;2023-08-08T02:40:36;14.20;99.90
14995;DHT22;7593;49.006;8.372;2023-08-08T02:43:04;14.10;99.90
14995;DHT22;7593;49.006;8.372;2023-08-08T02:45:30;14.10;99.90
14995;DHT22;7593;49.006;8.372;2023-08-08T02:47:58;14.10;99.90
14995;DHT22;7593;49.006;8.372;2023-08-08T02:50:26;14.10;99.90
14995;DHT22;7593;49.006;8.372;2023-08-08T02:52:53;14.10;99.90
14995;DHT22;7593;49.006;8.372;2023-08-08T02:55:19;14.10;99.90
14995;DHT22;7593;49.006;8.372;2023-08-08T02:57:46;14.10;99.90
14995;DHT22;7593;49.006;8.372;2023-08-08T03:00:13;14.10;99.90
14995;DHT22;7593;49.006;8.372;2023-08-08T03:02:40;14.10;99.90
14995;DHT22;7593;49.006;8.372;2023-08-08T03:05:07;14.10;99.90
14995;DHT22;7593;49.006;8.372;2023-08-08T03:07:35;14.10;99.90
14995;DHT22;7593;49.006;8.372;2023-08-08T03:10:03;14.10;99.90
14995;DHT22;7593;49.006;8.372;2023-08-08T03:12:30;14.10;99.90
14995;DHT22;7593;49.006;8.372;2023-08-08T03:14:57;14.10;99.90
14995;DHT22;7593;49.006;8.372;2023-08-08T03:17:23;14.20;99.90
14995;DHT22;7593;49.006;8.372;2023-08-08T03:19:50;14.20;99.90
14995;DHT22;7593;49.006;8.372;2023-08-08T03:22:17;14.20;99.90
14995;DHT22;7593;49.006;8.372;2023-08-08T03:24:45;14.30;99.90
14995;DHT22;7593;49.006;8.372;2023-08-08T03:27:12;14.30;99.90
14995;DHT22;7593;49.006;8.372;2023-08-08T03:29:38;14.30;99.90
14995;DHT22;7593;49.006;8.372;2023-08-08T03:32:06;14.30;99.90
14995;DHT22;7593;49.006;8.372;2023-08-08T03:34:32;14.30;99.90
14995;DHT22;7593;49.006;8.372;2023-08-08T03:36:59;14.40;99.90
14995;DHT22;7593;49.006;8.372;2023-08-08T03:39:26;14.40;99.90
14995;DHT22;7593;49.006;8.372;2023-08-08T03:41:54;14.40;99.90
14995;DHT22;7593;49.006;8.372;2023-08-08T03:44:21;14.40;99.90
14995;DHT22;7593;49.006;8.372;2023-08-08T03:46:48;14.30;99.90
14995;DHT22;7593;49.006;8.372;2023-08-08T03:49:16;14.40;99.90
14995;DHT22;7593;49.006;8.372;2023-08-08T03:51:43;14.40;99.90
14995;DHT22;7593;49.006;8.372;2023-08-08T03:54:09;14.40;99.90
14995;DHT22;7593;49.006;8.372;2023-08-08T03:56:36;14.40;99.90
14995;DHT22;7593;49.006;8.372;2023-08-08T03:59:04;14.40;99.90
14995;DHT22;7593;49.006;8.372;2023-08-08T04:01:31;14.40;99.90
14995;DHT22;7593;49.006;8.372;2023-08-08T04:03:58;14.40;99.90
14995;DHT22;7593;49.006;8.372;2023-08-08T04:06:25;14.40;99.90
14995;DHT22;7593;49.006;8.372;2023-08-08T04:08:52;14.30;99.90
14995;DHT22;7593;49.006;8.372;2023-08-08T04:11:18;14.30;99.90
14995;DHT22;7593;49.006;8.372;2023-08-08T04:13:45;14.30;99.90
14995;DHT22;7593;49.006;8.372;2023-08-08T04:16:13;14.20;99.90
14995;DHT22;7593;49.006;8.372;2023-08-08T04:18:40;14.20;99.90
14995;DHT22;7593;49.006;8.372;2023-08-08T04:21:07;14.10;99.90
14995;DHT22;7593;49.006;8.372;2023-08-08T04:23:33;14.10;99.90
14995;DHT22;7593;49.006;8.372;2023-08-08T04:26:00;14.10;99.90
14995;DHT22;7593;49.006;8.372;2023-08-08T04:28:27;14.00;99.90
14995;DHT22;7593;49.006;8.372;2023-08-08T04:30:54;14.00;99.90
14995;DHT22;7593;49.006;8.372;2023-08-08T04:33:22;14.00;99.90
14995;DHT22;7593;49.006;8.372;2023-08-08T04:35:49;14.00;99.90
14995;DHT22;7593;49.006;8.372;2023-08-08T04:38:16;14.00;99.90
14995;DHT22;7593;49.006;8.372;2023-08-08T04:40:42;14.00;99.90
14995;DHT22;7593;49.006;8.372;2023-08-08T04:43:09;14.00;99.90
14995;DHT22;7593;49.006;8.372;2023-08-08T04:45:36;14.00;99.90
14995;DHT22;7593;49.006;8.372;2023-08-08T04:48:03;14.00;99.90
14995;DHT22;7593;49.006;8.372;2023-08-08T04:50:31;14.00;99.90
14995;DHT22;7593;49.006;8.372;2023-08-08T04:52:58;14.00;99.90
14995;DHT22;7593;49.006;8.372;2023-08-08T04:55:25;14.00;99.90
14995;DHT22;7593;49.006;8.372;2023-08-08T04:57:51;13.90;99.90
14995;DHT22;7593;49.006;8.372;2023-08-08T05:00:18;13.90;99.90
14995;DHT22;7593;49.006;8.372;2023-08-08T05:02:45;13.90;99.90
14995;DHT22;7593;49.006;8.372;2023-08-08T05:05:12;13.90;99.90
14995;DHT22;7593;49.006;8.372;2023-08-08T05:07:40;13.90;99.90
14995;DHT22;7593;49.006;8.372;2023-08-08T05:10:07;13.90;99.90
14995;DHT22;7593;49.006;8.372;2023-08-08T05:12:33;13.90;99.90
14995;DHT22;7593;49.006;8.372;2023-08-08T05:15:00;13.90;99.90
14995;DHT22;7593;49.006;8.372;2023-08-08T05:17:29;13.90;99.90
14995;DHT22;7593;49.006;8.372;2023-08-08T05:19:56;14.00;99.90
14995;DHT22;7593;49.006;8.372;2023-08-08T05:22:23;14.00;99.90
14995;DHT22;7593;49.006;8.372;2023-08-08T05:24:51;14.00;99.90
14995;DHT22;7593;49.006;8.372;2023-08-08T05:27:18;14.00;99.90
14995;DHT22;7593;49.006;8.372;2023-08-08T05:29:44;14.10;99.90
14995;DHT22;7593;49.006;8.372;2023-08-08T05:32:11;14.10;99.90
14995;DHT22;7593;49.006;8.372;2023-08-08T05:34:38;14.10;99.90
14995;DHT22;7593;49.006;8.372;2023-08-08T05:37:05;14.10;99.90
14995;DHT22;7593;49.006;8.372;2023-08-08T05:39:31;14.20;99.90
14995;DHT22;7593;49.006;8.372;2023-08-08T05:41:59;14.30;99.90
14995;DHT22;7593;49.006;8.372;2023-08-08T05:44:26;14.30;99.90
14995;DHT22;7593;49.006;8.372;2023-08-08T05:46:55;14.40;99.90
14995;DHT22;7593;49.006;8.372;2023-08-08T05:49:22;14.40;99.90
14995;DHT22;7593;49.006;8.372;2023-08-08T05:51:49;14.50;99.90
14995;DHT22;7593;49.006;8.372;2023-08-08T05:54:15;14.60;99.90
14995;DHT22;7593;49.006;8.372;2023-08-08T05:56:42;14.60;99.90
14995;DHT22;7593;49.006;8.372;2023-08-08T05:59:10;14.70;99.90
14995;DHT22;7593;49.006;8.372;2023-08-08T06:01:37;14.80;99.90
14995;DHT22;7593;49.006;8.372;2023-08-08T06:04:04;14.80;99.90
14995;DHT22;7593;49.006;8.372;2023-08-08T06:06:31;14.90;99.90
14995;DHT22;7593;49.006;8.372;2023-08-08T06:08:58;15.00;99.90
14995;DHT22;7593;49.006;8.372;2023-08-08T06:11:24;15.10;99.90
14995;DHT22;7593;49.006;8.372;2023-08-08T06:13:51;15.20;99.90
14995;DHT22;7593;49.006;8.372;2023-08-08T06:16:21;15.30;99.90
14995;DHT22;7593;49.006;8.372;2023-08-08T06:18:48;15.30;99.90
14995;DHT22;7593;49.006;8.372;2023-08-08T06:21:14;15.30;99.90
14995;DHT22;7593;49.006;8.372;2023-08-08T06:23:41;15.40;99.90
14995;DHT22;7593;49.006;8.372;2023-08-08T06:26:08;15.60;99.90
14995;DHT22;7593;49.006;8.372;2023-08-08T06:28:34;15.80;99.90
14995;DHT22;7593;49.006;8.372;2023-08-08T06:31:02;16.10;99.90
14995;DHT22;7593;49.006;8.372;2023-08-08T06:33:37;16.40;99.90
14995;DHT22;7593;49.006;8.372;2023-08-08T06:36:05;16.60;99.90
14995;DHT22;7593;49.006;8.372;2023-08-08T06:38:31;16.70;99.90
14995;DHT22;7593;49.006;8.372;2023-08-08T06:40:59;16.80;99.90
14995;DHT22;7593;49.006;8.372;2023-08-08T06:43:26;16.90;99.90
14995;DHT22;7593;49.006;8.372;2023-08-08T06:45:53;17.10;99.90
14995;DHT22;7593;49.006;8.372;2023-08-08T06:48:19;17.30;99.90
14995;DHT22;7593;49.006;8.372;2023-08-08T06:50:50;17.40;99.90
14995;DHT22;7593;49.006;8.372;2023-08-08T06:53:17;17.50;99.90
14995;DHT22;7593;49.006;8.372;2023-08-08T06:55:44;17.60;99.90
14995;DHT22;7593;49.006;8.372;2023-08-08T06:58:11;17.70;99.90
14995;DHT22;7593;49.006;8.372;2023-08-08T07:00:38;17.80;99.90
14995;DHT22;7593;49.006;8.372;2023-08-08T07:03:05;17.80;99.90
14995;DHT22;7593;49.006;8.372;2023-08-08T07:05:32;17.90;99.90
14995;DHT22;7593;49.006;8.372;2023-08-08T07:08:00;18.10;99.90
14995;DHT22;7593;49.006;8.372;2023-08-08T07:10:27;18.20;99.90
14995;DHT22;7593;49.006;8.372;2023-08-08T07:12:55;18.30;99.90
14995;DHT22;7593;49.006;8.372;2023-08-08T07:15:21;18.50;99.90
14995;DHT22;7593;49.006;8.372;2023-08-08T07:17:49;18.40;99.90
14995;DHT22;7593;49.006;8.372;2023-08-08T07:20:16;18.60;99.90
14995;DHT22;7593;49.006;8.372;2023-08-08T07:22:43;18.70;99.90
14995;DHT22;7593;49.006;8.372;2023-08-08T07:25:11;18.70;99.90
14995;DHT22;7593;49.006;8.372;2023-08-08T07:27:38;19.00;99.90
14995;DHT22;7593;49.006;8.372;2023-08-08T07:30:05;19.20;99.90
14995;DHT22;7593;49.006;8.372;2023-08-08T07:32:33;19.30;99.90
14995;DHT22;7593;49.006;8.372;2023-08-08T07:35:00;19.30;99.90
14995;DHT22;7593;49.006;8.372;2023-08-08T07:37:30;19.40;99.90
14995;DHT22;7593;49.006;8.372;2023-08-08T07:39:57;19.50;99.90
14995;DHT22;7593;49.006;8.372;2023-08-08T07:42:25;19.30;99.90
14995;DHT22;7593;49.006;8.372;2023-08-08T07:44:52;19.30;99.90
14995;DHT22;7593;49.006;8.372;2023-08-08T07:47:19;19.40;99.90
14995;DHT22;7593;49.006;8.372;2023-08-08T07:49:45;19.50;99.90
14995;DHT22;7593;49.006;8.372;2023-08-08T07:52:12;19.60;99.90
14995;DHT22;7593;49.006;8.372;2023-08-08T07:54:40;19.50;99.90
14995;DHT22;7593;49.006;8.372;2023-08-08T07:57:06;19.40;99.90
14995;DHT22;7593;49.006;8.372;2023-08-08T07:59:34;19.40;99.90
14995;DHT22;7593;49.006;8.372;2023-08-08T08:02:01;19.60;99.90
14995;DHT22;7593;49.006;8.372;2023-08-08T08:04:28;19.60;99.90
14995;DHT22;7593;49.006;8.372;2023-08-08T08:06:56;19.70;99.90
14995;DHT22;7593;49.006;8.372;2023-08-08T08:09:22;19.90;99.90
14995;DHT22;7593;49.006;8.372;2023-08-08T08:11:49;20.10;99.90
14995;DHT22;7593;49.006;8.372;2023-08-08T08:14:16;20.30;99.90
14995;DHT22;7593;49.006;8.372;2023-08-08T08:16:45;20.50;99.90
14995;DHT22;7593;49.006;8.372;2023-08-08T08:19:11;20.60;99.90
14995;DHT22;7593;49.006;8.372;2023-08-08T08:21:38;20.80;99.90
14995;DHT22;7593;49.006;8.372;2023-08-08T08:24:06;20.90;99.90
14995;DHT22;7593;49.006;8.372;2023-08-08T08:26:33;20.90;99.90
14995;DHT22;7593;49.006;8.372;2023-08-08T08:28:59;21.00;99.90
14995;DHT22;7593;49.006;8.372;2023-08-08T08:31:26;20.90;99.90
14995;DHT22;7593;49.006;8.372;2023-08-08T08:33:55;20.80;99.90
14995;DHT22;7593;49.006;8.372;2023-08-08T08:36:21;20.80;99.90
14995;DHT22;7593;49.006;8.372;2023-08-08T08:38:48;20.90;99.90
14995;DHT22;7593;49.006;8.372;2023-08-08T08:41:18;21.00;99.90
14995;DHT22;7593;49.006;8.372;2023-08-08T08:43:45;21.00;99.90
14995;DHT22;7593;49.006;8.372;2023-08-08T08:46:14;21.20;99.90
14995;DHT22;7593;49.006;8.372;2023-08-08T08:48:46;21.20;99.90
14995;DHT22;7593;49.006;8.372;2023-08-08T08:51:15;21.40;99.90
14995;DHT22;7593;49.006;8.372;2023-08-08T08:53:42;21.70;99.90
14995;DHT22;7593;49.006;8.372;2023-08-08T08:56:12;22.10;99.90
14995;DHT22;7593;49.006;8.372;2023-08-08T08:58:39;22.60;99.90
14995;DHT22;7593;49.006;8.372;2023-08-08T09:01:07;22.70;99.90
14995;DHT22;7593;49.006;8.372;2023-08-08T09:03:35;22.70;99.90
14995;DHT22;7593;49.006;8.372;2023-08-08T09:06:02;22.60;99.90
14995;DHT22;7593;49.006;8.372;2023-08-08T09:08:31;22.70;99.90
14995;DHT22;7593;49.006;8.372;2023-08-08T09:10:57;22.90;99.90
14995;DHT22;7593;49.006;8.372;2023-08-08T09:13:24;22.80;99.90
14995;DHT22;7593;49.006;8.372;2023-08-08T09:15:52;22.50;99.90
14995;DHT22;7593;49.006;8.372;2023-08-08T09:18:19;22.40;99.90
14995;DHT22;7593;49.006;8.372;2023-08-08T09:20:49;22.30;99.90
14995;DHT22;7593;49.006;8.372;2023-08-08T09:23:16;22.30;99.90
14995;DHT22;7593;49.006;8.372;2023-08-08T09:25:44;22.50;99.90
14995;DHT22;7593;49.006;8.372;2023-08-08T09:28:11;22.40;99.90
14995;DHT22;7593;49.006;8.372;2023-08-08T09:30:38;22.50;99.90
14995;DHT22;7593;49.006;8.372;2023-08-08T09:33:06;22.50;99.90
14995;DHT22;7593;49.006;8.372;2023-08-08T09:35:33;22.50;99.90
14995;DHT22;7593;49.006;8.372;2023-08-08T09:38:00;22.60;99.90
14995;DHT22;7593;49.006;8.372;2023-08-08T09:40:27;22.50;99.90
14995;DHT22;7593;49.006;8.372;2023-08-08T09:42:57;22.30;99.90
14995;DHT22;7593;49.006;8.372;2023-08-08T09:45:23;22.30;99.90
14995;DHT22;7593;49.006;8.372;2023-08-08T09:47:51;22.40;99.90
14995;DHT22;7593;49.006;8.372;2023-08-08T09:50:19;22.50;99.90
14995;DHT22;7593;49.006;8.372;2023-08-08T09:52:46;22.70;99.90
14995;DHT22;7593;49.006;8.372;2023-08-08T09:55:14;22.90;99.90
14995;DHT22;7593;49.006;8.372;2023-08-08T09:57:41;23.00;99.90
14995;DHT22;7593;49.006;8.372;2023-08-08T10:00:11;22.80;99.90
14995;DHT22;7593;49.006;8.372;2023-08-08T10:02:42;22.50;99.90
14995;DHT22;7593;49.006;8.372;2023-08-08T10:05:10;22.50;99.90
14995;DHT22;7593;49.006;8.372;2023-08-08T10:07:38;22.50;99.90
14995;DHT22;7593;49.006;8.372;2023-08-08T10:10:07;22.40;99.90
14995;DHT22;7593;49.006;8.372;2023-08-08T10:12:36;22.20;99.90
14995;DHT22;7593;49.006;8.372;2023-08-08T10:15:04;22.10;99.90
14995;DHT22;7593;49.006;8.372;2023-08-08T10:17:36;21.90;99.90
14995;DHT22;7593;49.006;8.372;2023-08-08T10:20:04;21.80;99.90
14995;DHT22;7593;49.006;8.372;2023-08-08T10:22:37;22.00;99.90
14995;DHT22;7593;49.006;8.372;2023-08-08T10:25:08;22.20;99.90
14995;DHT22;7593;49.006;8.372;2023-08-08T10:27:36;22.40;99.90
14995;DHT22;7593;49.006;8.372;2023-08-08T10:30:05;22.80;99.90
14995;DHT22;7593;49.006;8.372;2023-08-08T10:32:42;23.30;99.90
14995;DHT22;7593;49.006;8.372;2023-08-08T10:35:11;23.30;99.90
14995;DHT22;7593;49.006;8.372;2023-08-08T10:37:38;23.30;99.90
14995;DHT22;7593;49.006;8.372;2023-08-08T10:40:06;23.20;99.90
14995;DHT22;7593;49.006;8.372;2023-08-08T10:42:42;23.30;99.90
14995;DHT22;7593;49.006;8.372;2023-08-08T10:45:10;23.00;99.90
14995;DHT22;7593;49.006;8.372;2023-08-08T10:47:38;22.70;99.90
14995;DHT22;7593;49.006;8.372;2023-08-08T10:50:07;22.60;99.70
14995;DHT22;7593;49.006;8.372;2023-08-08T10:52:38;22.70;99.90
14995;DHT22;7593;49.006;8.372;2023-08-08T10:55:06;22.90;99.90
14995;DHT22;7593;49.006;8.372;2023-08-08T10:57:55;23.30;99.90
14995;DHT22;7593;49.006;8.372;2023-08-08T11:00:24;23.70;99.10
14995;DHT22;7593;49.006;8.372;2023-08-08T11:02:51;24.10;98.50
14995;DHT22;7593;49.006;8.372;2023-08-08T11:05:21;24.20;98.00
14995;DHT22;7593;49.006;8.372;2023-08-08T11:07:48;24.00;95.60
14995;DHT22;7593;49.006;8.372;2023-08-08T11:10:15;23.90;95.60
14995;DHT22;7593;49.006;8.372;2023-08-08T11:12:43;24.10;96.00
14995;DHT22;7593;49.006;8.372;2023-08-08T11:15:18;24.00;95.90
14995;DHT22;7593;49.006;8.372;2023-08-08T11:17:45;23.90;96.70
14995;DHT22;7593;49.006;8.372;2023-08-08T11:20:11;24.10;96.40
14995;DHT22;7593;49.006;8.372;2023-08-08T11:22:40;24.10;96.40
14995;DHT22;7593;49.006;8.372;2023-08-08T11:25:08;24.10;96.50
14995;DHT22;7593;49.006;8.372;2023-08-08T11:27:35;24.40;96.70
14995;DHT22;7593;49.006;8.372;2023-08-08T11:30:03;24.90;96.50
14995;DHT22;7593;49.006;8.372;2023-08-08T11:32:30;25.10;95.20
14995;DHT22;7593;49.006;8.372;2023-08-08T11:34:57;25.20;95.50
14995;DHT22;7593;49.006;8.372;2023-08-08T11:37:24;25.20;95.80
14995;DHT22;7593;49.006;8.372;2023-08-08T11:39:52;24.80;95.40
14995;DHT22;7593;49.006;8.372;2023-08-08T11:42:19;24.50;95.90
14995;DHT22;7593;49.006;8.372;2023-08-08T11:44:45;24.20;96.20
14995;DHT22;7593;49.006;8.372;2023-08-08T11:47:13;24.10;96.00
14995;DHT22;7593;49.006;8.372;2023-08-08T11:49:40;24.00;94.60
14995;DHT22;7593;49.006;8.372;2023-08-08T11:52:07;23.50;94.60
14995;DHT22;7593;49.006;8.372;2023-08-08T11:54:36;23.20;95.20
14995;DHT22;7593;49.006;8.372;2023-08-08T11:57:05;23.00;95.70
14995;DHT22;7593;49.006;8.372;2023-08-08T11:59:31;22.90;96.30
14995;DHT22;7593;49.006;8.372;2023-08-08T12:01:58;23.00;96.70
14995;DHT22;7593;49.006;8.372;2023-08-08T12:04:25;23.60;96.70
14995;DHT22;7593;49.006;8.372;2023-08-08T12:07:00;24.10;96.90
14995;DHT22;7593;49.006;8.372;2023-08-08T12:09:29;24.80;96.50
14995;DHT22;7593;49.006;8.372;2023-08-08T12:11:59;25.40;95.60
14995;DHT22;7593;49.006;8.372;2023-08-08T12:14:27;25.30;95.00
14995;DHT22;7593;49.006;8.372;2023-08-08T12:16:54;25.30;95.60
14995;DHT22;7593;49.006;8.372;2023-08-08T12:19:23;25.20;95.10
14995;DHT22;7593;49.006;8.372;2023-08-08T12:21:50;25.50;93.60
14995;DHT22;7593;49.006;8.372;2023-08-08T12:24:17;25.60;92.60
14995;DHT22;7593;49.006;8.372;2023-08-08T12:26:44;25.70;93.20
14995;DHT22;7593;49.006;8.372;2023-08-08T12:29:11;25.70;93.10
14995;DHT22;7593;49.006;8.372;2023-08-08T12:31:39;25.50;93.10
14995;DHT22;7593;49.006;8.372;2023-08-08T12:34:06;26.10;92.90
14995;DHT22;7593;49.006;8.372;2023-08-08T12:36:33;26.20;93.00
14995;DHT22;7593;49.006;8.372;2023-08-08T12:39:00;25.90;93.00
14995;DHT22;7593;49.006;8.372;2023-08-08T12:41:27;25.80;92.50
14995;DHT22;7593;49.006;8.372;2023-08-08T12:43:55;25.90;92.80
14995;DHT22;7593;49.006;8.372;2023-08-08T12:46:21;26.40;92.40
14995;DHT22;7593;49.006;8.372;2023-08-08T12:48:49;26.80;91.40
14995;DHT22;7593;49.006;8.372;2023-08-08T12:51:16;27.20;90.40
14995;DHT22;7593;49.006;8.372;2023-08-08T12:53:43;27.20;90.40
14995;DHT22;7593;49.006;8.372;2023-08-08T12:56:10;27.60;90.70
14995;DHT22;7593;49.006;8.372;2023-08-08T12:58:37;28.00;90.10
14995;DHT22;7593;49.006;8.372;2023-08-08T13:01:04;27.40;90.50
14995;DHT22;7593;49.006;8.372;2023-08-08T13:03:31;27.40;91.10
14995;DHT22;7593;49.006;8.372;2023-08-08T13:06:00;27.70;91.10
14995;DHT22;7593;49.006;8.372;2023-08-08T13:08:27;27.70;89.90
14995;DHT22;7593;49.006;8.372;2023-08-08T13:10:54;27.20;88.40
14995;DHT22;7593;49.006;8.372;2023-08-08T13:13:21;26.70;89.20
14995;DHT22;7593;49.006;8.372;2023-08-08T13:15:50;27.10;90.10
14995;DHT22;7593;49.006;8.372;2023-08-08T13:18:17;27.40;89.60
14995;DHT22;7593;49.006;8.372;2023-08-08T13:20:44;27.30;88.70
14995;DHT22;7593;49.006;8.372;2023-08-08T13:23:12;27.30;88.60
14995;DHT22;7593;49.006;8.372;2023-08-08T13:25:39;26.40;90.10
14995;DHT22;7593;49.006;8.372;2023-08-08T13:28:06;26.40;91.00
14995;DHT22;7593;49.006;8.372;2023-08-08T13:30:33;26.30;90.80
14995;DHT22;7593;49.006;8.372;2023-08-08T13:33:01;26.40;91.30
14995;DHT22;7593;49.006;8.372;2023-08-08T13:35:28;26.70;91.00
14995;DHT22;7593;49.006;8.372;2023-08-08T13:37:55;26.90;90.10
14995;DHT22;7593;49.006;8.372;2023-08-08T13:40:23;27.10;89.50
14995;DHT22;7593;49.006;8.372;2023-08-08T13:42:50;27.00;88.00
14995;DHT22;7593;49.006;8.372;2023-08-08T13:45:17;26.40;89.50
14995;DHT22;7593;49.006;8.372;2023-08-08T13:47:44;26.30;90.40
14995;DHT22;7593;49.006;8.372;2023-08-08T13:50:12;26.50;90.40
14995;DHT22;7593;49.006;8.372;2023-08-08T13:52:39;26.40;88.70
14995;DHT22;7593;49.006;8.372;2023-08-08T13:55:06;26.20;86.80
14995;DHT22;7593;49.006;8.372;2023-08-08T13:57:35;26.40;88.20
14995;DHT22;7593;49.006;8.372;2023-08-08T14:00:02;26.60;87.70
14995;DHT22;7593;49.006;8.372;2023-08-08T14:02:29;26.70;86.10
14995;DHT22;7593;49.006;8.372;2023-08-08T14:04:56;26.60;86.20
14995;DHT22;7593;49.006;8.372;2023-08-08T14:07:22;26.60;87.00
14995;DHT22;7593;49.006;8.372;2023-08-08T14:09:49;26.50;84.80
14995;DHT22;7593;49.006;8.372;2023-08-08T14:12:16;26.20;84.20
14995;DHT22;7593;49.006;8.372;2023-08-08T14:14:44;26.50;84.80
14995;DHT22;7593;49.006;8.372;2023-08-08T14:17:11;26.60;84.70
14995;DHT22;7593;49.006;8.372;2023-08-08T14:19:38;26.50;84.80
14995;DHT22;7593;49.006;8.372;2023-08-08T14:22:04;26.60;84.90
14995;DHT22;7593;49.006;8.372;2023-08-08T14:24:31;26.50;84.20
14995;DHT22;7593;49.006;8.372;2023-08-08T14:26:58;26.40;85.30
14995;DHT22;7593;49.006;8.372;2023-08-08T14:29:24;27.10;85.10
14995;DHT22;7593;49.006;8.372;2023-08-08T14:31:52;27.40;83.60
14995;DHT22;7593;49.006;8.372;2023-08-08T14:34:27;27.00;82.80
14995;DHT22;7593;49.006;8.372;2023-08-08T14:36:54;26.50;82.20
14995;DHT22;7593;49.006;8.372;2023-08-08T14:39:20;26.40;84.20
14995;DHT22;7593;49.006;8.372;2023-08-08T14:41:47;26.50;84.70
14995;DHT22;7593;49.006;8.372;2023-08-08T14:44:14;26.70;83.40
14995;DHT22;7593;49.006;8.372;2023-08-08T14:46:41;26.60;84.10
14995;DHT22;7593;49.006;8.372;2023-08-08T14:49:09;26.60;84.00
14995;DHT22;7593;49.006;8.372;2023-08-08T14:51:36;26.80;84.20
14995;DHT22;7593;49.006;8.372;2023-08-08T14:54:03;26.80;84.90
14995;DHT22;7593;49.006;8.372;2023-08-08T14:56:30;26.80;84.20
14995;DHT22;7593;49.006;8.372;2023-08-08T14:58:57;26.80;84.70
14995;DHT22;7593;49.006;8.372;2023-08-08T15:01:23;27.10;83.50
14995;DHT22;7593;49.006;8.372;2023-08-08T15:03:50;27.20;84.50
14995;DHT22;7593;49.006;8.372;2023-08-08T15:06:18;27.10;83.60
14995;DHT22;7593;49.006;8.372;2023-08-08T15:08:45;27.50;82.70
14995;DHT22;7593;49.006;8.372;2023-08-08T15:11:12;27.60;83.10
14995;DHT22;7593;49.006;8.372;2023-08-08T15:13:38;27.40;82.70
14995;DHT22;7593;49.006;8.372;2023-08-08T15:16:05;27.20;83.50
14995;DHT22;7593;49.006;8.372;2023-08-08T15:18:32;26.90;83.80
14995;DHT22;7593;49.006;8.372;2023-08-08T15:20:59;26.20;84.80
14995;DHT22;7593;49.006;8.372;2023-08-08T15:23:27;25.60;86.30
14995;DHT22;7593;49.006;8.372;2023-08-08T15:25:54;25.20;87.50
14995;DHT22;7593;49.006;8.372;2023-08-08T15:28:21;25.00;88.10
14995;DHT22;7593;49.006;8.372;2023-08-08T15:30:49;24.70;88.70
14995;DHT22;7593;49.006;8.372;2023-08-08T15:33:15;24.50;89.80
14995;DHT22;7593;49.006;8.372;2023-08-08T15:35:42;24.40;90.20
14995;DHT22;7593;49.006;8.372;2023-08-08T15:38:09;24.40;90.40
14995;DHT22;7593;49.006;8.372;2023-08-08T15:40:38;24.40;90.40
14995;DHT22;7593;49.006;8.372;2023-08-08T15:43:05;24.40;90.60
14995;DHT22;7593;49.006;8.372;2023-08-08T15:45:32;24.10;90.50